Time;durP1;ratioP1;P1;durP2;ratioP2;P2;SDS_P1;SDS_P2;PMS_P1;PMS_P2;Temp;Humidity;BMP_temperature;BMP_pressure;BME280_temperature;BME280_humidity;BME280_pressure;Samples;Min_cycle;Max_cycle;Signal;HPM_P1;HPM_P2
2023/08/22 00:02:52;;;;;;;18.20;11.63;;;;;22.70;96763.00;;;;8336036;28;20274;-69
2023/08/22 00:06:57;;;;;;;17.08;11.40;;;;;22.60;96748.00;;;;8338980;28;20229;-68
2023/08/22 00:11:01;;;;;;;15.90;11.85;;;;;22.50;96747.00;;;;8344410;28;20259;-68
2023/08/22 00:15:10;;;;;;;21.23;12.52;;;;;22.50;96736.00;;;;8346304;28;20240;-68
2023/08/22 00:19:16;;;;;;;21.95;11.93;;;;;22.50;96741.00;;;;8346265;28;20196;-68
2023/08/22 00:23:19;;;;;;;16.98;12.57;;;;;22.40;96742.00;;;;8347808;28;20204;-69
2023/08/22 00:27:23;;;;;;;17.13;11.55;;;;;22.40;96743.00;;;;8334833;28;20201;-67
2023/08/22 00:31:28;;;;;;;19.33;11.50;;;;;22.50;96742.00;;;;8345747;28;20247;-67
2023/08/22 00:35:47;;;;;;;15.10;11.57;;;;;22.60;96736.00;;;;8346221;28;20232;-67
2023/08/22 00:39:53;;;;;;;20.05;11.77;;;;;22.70;96732.00;;;;8342653;28;20189;-67
2023/08/22 00:43:58;;;;;;;21.42;12.63;;;;;22.80;96727.00;;;;8343950;28;20203;-67
2023/08/22 00:48:02;;;;;;;15.30;11.60;;;;;22.80;96728.00;;;;8341626;28;20192;-67
2023/08/22 00:52:10;;;;;;;23.25;13.00;;;;;22.80;96719.00;;;;8345712;28;22201;-68
2023/08/22 00:56:22;;;;;;;15.88;10.98;;;;;22.70;96725.00;;;;8322935;28;20194;-67
2023/08/22 01:00:27;;;;;;;17.85;11.43;;;;;22.70;96728.00;;;;8334621;28;20384;-68
2023/08/22 01:04:30;;;;;;;14.43;10.63;;;;;22.70;96721.00;;;;8329858;28;21025;-67
2023/08/22 01:08:39;;;;;;;16.02;11.52;;;;;22.70;96712.00;;;;8337807;28;20522;-66
2023/08/22 01:12:48;;;;;;;15.75;11.32;;;;;22.70;96712.00;;;;8337662;28;20200;-67
2023/08/22 01:16:52;;;;;;;16.65;11.52;;;;;22.70;96706.00;;;;8330077;28;20289;-67
2023/08/22 01:20:58;;;;;;;19.80;12.65;;;;;22.70;96704.00;;;;8340262;28;20204;-68
2023/08/22 01:25:05;;;;;;;17.25;11.85;;;;;22.70;96695.00;;;;8343793;28;20204;-67
2023/08/22 01:29:13;;;;;;;16.23;11.50;;;;;22.70;96697.00;;;;8343115;28;20225;-67
2023/08/22 01:33:29;;;;;;;27.10;12.25;;;;;22.70;96702.00;;;;8338000;28;20910;-67
2023/08/22 01:37:35;;;;;;;17.40;11.55;;;;;22.50;96699.00;;;;8336338;28;20255;-67
2023/08/22 01:41:40;;;;;;;19.95;12.13;;;;;22.50;96694.00;;;;8336676;28;20212;-68
2023/08/22 01:45:43;;;;;;;17.05;12.27;;;;;22.40;96695.00;;;;8341640;28;20199;-68
2023/08/22 01:49:49;;;;;;;19.92;12.13;;;;;22.30;96701.00;;;;8335976;28;20869;-69
2023/08/22 01:53:56;;;;;;;20.38;12.80;;;;;22.20;96701.00;;;;8337211;28;20205;-69
2023/08/22 01:58:00;;;;;;;16.77;12.80;;;;;22.20;96702.00;;;;8337233;28;20341;-67
2023/08/22 02:02:07;;;;;;;16.20;12.32;;;;;22.20;96700.00;;;;8340375;28;20209;-69
2023/08/22 02:06:15;;;;;;;15.40;11.73;;;;;22.20;96699.00;;;;8337768;28;20209;-68
2023/08/22 02:10:21;;;;;;;17.38;12.25;;;;;22.20;96691.00;;;;8333752;28;20319;-68
2023/08/22 02:14:26;;;;;;;18.23;12.20;;;;;22.20;96687.00;;;;8340046;28;20207;-68
2023/08/22 02:18:29;;;;;;;15.68;11.32;;;;;22.20;96685.00;;;;8333004;28;20216;-68
2023/08/22 02:22:42;;;;;;;45.22;12.73;;;;;22.30;96684.00;;;;8336906;28;20201;-68
2023/08/22 02:26:47;;;;;;;39.38;13.32;;;;;22.30;96681.00;;;;8337561;28;20193;-68
2023/08/22 02:31:02;;;;;;;30.40;12.95;;;;;22.30;96684.00;;;;8338151;28;20331;-68
2023/08/22 02:35:11;;;;;;;19.13;11.15;;;;;22.30;96678.00;;;;8335140;28;20198;-67
2023/08/22 02:39:18;;;;;;;27.30;11.55;;;;;22.30;96671.00;;;;8345636;28;20197;-68
2023/08/22 02:43:21;;;;;;;23.75;11.60;;;;;22.30;96667.00;;;;8340522;28;20205;-67
2023/08/22 02:47:25;;;;;;;18.70;11.75;;;;;22.30;96673.00;;;;8343688;28;20225;-67
2023/08/22 02:51:32;;;;;;;13.80;11.65;;;;;22.20;96680.00;;;;8344827;28;20282;-68
2023/08/22 02:55:35;;;;;;;18.45;12.10;;;;;22.20;96675.00;;;;8337673;28;20201;-68
2023/08/22 02:59:41;;;;;;;17.48;11.10;;;;;22.10;96682.00;;;;8348341;28;20201;-67
2023/08/22 03:03:50;;;;;;;16.02;10.73;;;;;22.10;96682.00;;;;8326191;22;21809;-68
2023/08/22 03:07:53;;;;;;;17.40;11.30;;;;;22.10;96674.00;;;;8283096;28;21086;-67
2023/08/22 03:11:57;;;;;;;16.95;11.18;;;;;22.00;96672.00;;;;8319423;28;20240;-67
2023/08/22 03:16:04;;;;;;;16.27;11.18;;;;;22.00;96672.00;;;;8315628;28;20194;-67
2023/08/22 03:20:10;;;;;;;16.17;11.35;;;;;21.90;96668.00;;;;8321170;28;20296;-67
2023/08/22 03:24:13;;;;;;;19.75;11.48;;;;;21.80;96668.00;;;;8312984;28;20559;-67
2023/08/22 03:28:18;;;;;;;17.58;11.13;;;;;21.80;96663.00;;;;8316262;28;20229;-67
2023/08/22 03:32:23;;;;;;;18.08;12.20;;;;;21.70;96665.00;;;;8320588;28;20217;-66
2023/08/22 03:36:31;;;;;;;22.67;12.38;;;;;21.70;96667.00;;;;8311413;28;20817;-69
2023/08/22 03:40:37;;;;;;;20.30;12.75;;;;;21.70;96668.00;;;;8306566;28;20205;-70
2023/08/22 03:44:40;;;;;;;20.60;12.70;;;;;21.60;96668.00;;;;8317216;28;20204;-69
2023/08/22 03:48:49;;;;;;;17.90;12.20;;;;;21.50;96673.00;;;;8313877;28;20288;-68
2023/08/22 03:52:58;;;;;;;18.92;12.57;;;;;21.40;96671.00;;;;8315108;28;20329;-68
2023/08/22 03:57:03;;;;;;;17.02;12.85;;;;;21.40;96676.00;;;;8311116;28;20240;-70
2023/08/22 04:01:06;;;;;;;15.55;11.55;;;;;21.40;96670.00;;;;8309980;28;20566;-69
2023/08/22 04:05:10;;;;;;;19.45;11.82;;;;;21.40;96671.00;;;;8340704;28;20200;-69
2023/08/22 04:09:16;;;;;;;21.30;13.57;;;;;21.30;96677.00;;;;8342362;28;20208;-68
2023/08/22 04:13:22;;;;;;;15.98;11.85;;;;;21.40;96671.00;;;;8339035;28;20193;-69
2023/08/22 04:17:25;;;;;;;17.67;12.23;;;;;21.40;96674.00;;;;8336014;28;20204;-69
2023/08/22 04:21:28;;;;;;;17.75;12.45;;;;;21.40;96670.00;;;;8339114;28;20611;-71
2023/08/22 04:25:34;;;;;;;18.42;12.32;;;;;21.40;96670.00;;;;8339364;28;20229;-71
2023/08/22 04:29:38;;;;;;;19.15;13.23;;;;;21.40;96665.00;;;;8338866;28;20882;-71
2023/08/22 04:33:42;;;;;;;17.23;12.60;;;;;21.50;96666.00;;;;8333940;28;20197;-67
2023/08/22 04:37:45;;;;;;;22.17;12.25;;;;;21.50;96674.00;;;;8336962;28;20228;-66
2023/08/22 04:41:51;;;;;;;16.40;12.43;;;;;21.60;96670.00;;;;8334058;28;20201;-66
2023/08/22 04:45:54;;;;;;;18.10;11.93;;;;;21.60;96676.00;;;;8340619;28;20243;-66
2023/08/22 04:50:01;;;;;;;18.02;11.45;;;;;21.60;96675.00;;;;8341252;28;20225;-66
2023/08/22 04:54:22;;;;;;;24.90;12.60;;;;;21.70;96670.00;;;;8343685;28;20197;-66
2023/08/22 04:58:26;;;;;;;37.42;12.80;;;;;21.80;96671.00;;;;8341557;28;20291;-66
2023/08/22 05:02:31;;;;;;;16.98;11.88;;;;;21.90;96674.00;;;;8340846;28;20255;-66
2023/08/22 05:06:37;;;;;;;14.95;11.30;;;;;22.00;96672.00;;;;8342642;28;20189;-66
2023/08/22 05:10:41;;;;;;;18.95;11.65;;;;;22.20;96673.00;;;;8342019;28;20667;-67
2023/08/22 05:14:45;;;;;;;16.17;10.90;;;;;22.40;96678.00;;;;8337663;28;20204;-66
2023/08/22 05:18:51;;;;;;;16.30;11.25;;;;;22.70;96678.00;;;;8342135;28;20658;-66
2023/08/22 05:22:54;;;;;;;22.25;11.70;;;;;22.90;96681.00;;;;8339257;28;20207;-67
2023/08/22 05:26:58;;;;;;;18.55;11.32;;;;;23.00;96683.00;;;;8339891;28;20211;-66
2023/08/22 05:31:04;;;;;;;19.70;11.60;;;;;23.00;96679.00;;;;8339112;28;20721;-67
2023/08/22 05:35:11;;;;;;;18.70;12.48;;;;;23.20;96681.00;;;;8341067;28;20211;-67
2023/08/22 05:39:18;;;;;;;21.98;11.15;;;;;23.30;96679.00;;;;8341940;28;20193;-67
2023/08/22 05:43:23;;;;;;;18.85;11.05;;;;;23.50;96689.00;;;;8322651;28;20200;-67
2023/08/22 05:47:30;;;;;;;16.73;11.32;;;;;23.60;96690.00;;;;8333719;28;20718;-66
2023/08/22 05:51:37;;;;;;;16.58;10.55;;;;;23.80;96688.00;;;;8336815;28;20259;-67
2023/08/22 05:55:40;;;;;;;15.77;10.40;;;;;23.90;96692.00;;;;8341145;28;20680;-66
2023/08/22 05:59:44;;;;;;;15.23;10.07;;;;;24.20;96697.00;;;;8340438;28;20752;-67
2023/08/22 06:03:50;;;;;;;20.42;10.48;;;;;24.40;96696.00;;;;8342428;28;20224;-66
2023/08/22 06:07:55;;;;;;;16.85;11.43;;;;;24.70;96697.00;;;;8340163;28;20628;-66
2023/08/22 06:12:02;;;;;;;16.80;10.88;;;;;24.90;96701.00;;;;8341012;28;20367;-66
2023/08/22 06:16:05;;;;;;;13.88;10.05;;;;;25.00;96705.00;;;;8340055;28;20201;-67
2023/08/22 06:20:12;;;;;;;14.02;10.50;;;;;25.00;96698.00;;;;8340762;28;20633;-68
2023/08/22 06:24:15;;;;;;;13.68;9.65;;;;;25.30;96701.00;;;;8341390;28;20204;-68
2023/08/22 06:28:19;;;;;;;15.13;9.98;;;;;25.50;96701.00;;;;8337585;28;20284;-68
2023/08/22 06:32:22;;;;;;;13.93;9.50;;;;;25.80;96701.00;;;;8335643;28;20585;-68
2023/08/22 06:36:27;;;;;;;18.27;10.18;;;;;26.00;96694.00;;;;8338490;28;20236;-68
2023/08/22 06:40:33;;;;;;;13.25;9.65;;;;;26.30;96693.00;;;;8339574;28;21245;-68
2023/08/22 06:44:39;;;;;;;13.23;10.38;;;;;26.60;96697.00;;;;8326894;28;20193;-68
2023/08/22 06:48:43;;;;;;;16.70;10.57;;;;;26.80;96692.00;;;;8337420;28;20224;-70
2023/08/22 06:52:49;;;;;;;13.55;10.20;;;;;27.10;96697.00;;;;8342224;28;20672;-69
2023/08/22 06:56:52;;;;;;;20.42;10.65;;;;;27.60;96699.00;;;;8339037;28;20197;-70
2023/08/22 07:00:57;;;;;;;20.55;10.43;;;;;27.90;96694.00;;;;8332006;28;20626;-70
2023/08/22 07:05:04;;;;;;;16.25;9.80;;;;;28.30;96696.00;;;;8335266;28;20981;-70
2023/08/22 07:09:09;;;;;;;13.98;10.82;;;;;28.70;96701.00;;;;8337303;28;20200;-70
2023/08/22 07:13:19;;;;;;;15.52;11.07;;;;;29.10;96699.00;;;;8340698;28;20252;-70
2023/08/22 07:17:27;;;;;;;15.48;9.48;;;;;29.40;96693.00;;;;8341286;28;20205;-69
2023/08/22 07:21:32;;;;;;;14.63;9.93;;;;;29.80;96690.00;;;;8340304;28;20325;-69
2023/08/22 07:25:40;;;;;;;15.82;11.32;;;;;30.60;96692.00;;;;8342181;28;20224;-69
2023/08/22 07:29:46;;;;;;;14.65;9.88;;;;;31.40;96684.00;;;;8338209;28;20315;-69
2023/08/22 07:33:49;;;;;;;14.77;10.73;;;;;32.30;96695.00;;;;8343217;28;20274;-69
2023/08/22 07:37:52;;;;;;;13.93;10.00;;;;;32.70;96698.00;;;;8342085;28;20209;-68
2023/08/22 07:41:58;;;;;;;14.43;9.82;;;;;33.10;96697.00;;;;8333993;28;20247;-69
2023/08/22 07:46:02;;;;;;;13.27;9.73;;;;;33.80;96698.00;;;;8340508;28;20657;-69
2023/08/22 07:50:09;;;;;;;14.32;9.60;;;;;34.40;96701.00;;;;8343784;28;20205;-68
2023/08/22 07:54:12;;;;;;;12.23;9.60;;;;;34.80;96699.00;;;;8343412;28;20316;-69
2023/08/22 07:58:17;;;;;;;10.90;8.80;;;;;35.00;96701.00;;;;8340504;28;20260;-69
2023/08/22 08:02:21;;;;;;;13.07;9.70;;;;;35.40;96697.00;;;;8345990;28;20319;-69
2023/08/22 08:06:25;;;;;;;14.13;9.52;;;;;35.80;96701.00;;;;8342192;28;20264;-69
2023/08/22 08:10:29;;;;;;;12.18;9.52;;;;;35.80;96710.00;;;;8337214;28;20228;-69
2023/08/22 08:14:34;;;;;;;13.85;9.02;;;;;36.10;96710.00;;;;8344534;28;20653;-69
2023/08/22 08:18:38;;;;;;;15.88;9.23;;;;;36.60;96710.00;;;;8318089;28;20260;-69
2023/08/22 08:22:44;;;;;;;10.77;8.57;;;;;36.90;96714.00;;;;8341550;28;20307;-69
2023/08/22 08:26:48;;;;;;;11.88;9.48;;;;;36.90;96711.00;;;;8341928;28;20209;-69
2023/08/22 08:30:54;;;;;;;11.77;8.82;;;;;37.10;96710.00;;;;8347371;28;20708;-69
2023/08/22 08:35:04;;;;;;;12.75;8.40;;;;;37.40;96714.00;;;;8334239;28;20208;-69
2023/08/22 08:39:07;;;;;;;10.52;8.82;;;;;37.30;96714.00;;;;8339077;28;20460;-69
2023/08/22 08:43:11;;;;;;;9.85;8.27;;;;;37.70;96720.00;;;;8344263;28;20198;-69
2023/08/22 08:47:16;;;;;;;11.45;8.55;;;;;38.20;96712.00;;;;8344852;28;20211;-69
2023/08/22 08:51:19;;;;;;;10.95;8.20;;;;;38.50;96725.00;;;;8337054;28;20221;-69
2023/08/22 08:55:27;;;;;;;11.73;7.75;;;;;39.00;96722.00;;;;8338100;28;20307;-69
2023/08/22 08:59:32;;;;;;;14.73;8.57;;;;;39.30;96721.00;;;;8338529;28;20287;-69
2023/08/22 09:03:39;;;;;;;10.77;7.55;;;;;39.70;96717.00;;;;8334662;28;20331;-70
2023/08/22 09:07:46;;;;;;;11.20;7.63;;;;;40.00;96713.00;;;;8341084;28;20203;-70
2023/08/22 09:11:52;;;;;;;8.18;7.25;;;;;40.10;96716.00;;;;8343053;28;20252;-70
2023/08/22 09:16:02;;;;;;;9.18;7.00;;;;;40.00;96711.00;;;;8337769;28;20201;-70
2023/08/22 09:20:10;;;;;;;10.73;6.78;;;;;40.20;96710.00;;;;8338333;28;20227;-70
2023/08/22 09:24:15;;;;;;;12.05;7.25;;;;;40.50;96710.00;;;;8341078;28;20842;-70
2023/08/22 09:28:18;;;;;;;14.70;6.55;;;;;40.70;96705.00;;;;8336249;28;20280;-70
2023/08/22 09:32:23;;;;;;;9.07;6.60;;;;;40.90;96701.00;;;;8341465;28;20227;-70
2023/08/22 09:36:30;;;;;;;7.80;6.35;;;;;40.70;96707.00;;;;8339659;28;20208;-69
2023/08/22 09:40:33;;;;;;;11.77;5.82;;;;;40.50;96706.00;;;;8345630;28;20313;-70
2023/08/22 09:44:36;;;;;;;10.35;5.88;;;;;40.40;96720.00;;;;8342609;28;20206;-70
2023/08/22 09:48:44;;;;;;;6.45;5.45;;;;;40.70;96705.00;;;;8342327;28;20205;-70
2023/08/22 09:52:54;;;;;;;8.88;5.70;;;;;41.20;96700.00;;;;8343399;28;20248;-70
2023/08/22 09:56:58;;;;;;;10.52;6.72;;;;;41.30;96705.00;;;;8344011;28;20201;-70
2023/08/22 10:01:04;;;;;;;8.85;6.38;;;;;41.40;96696.00;;;;8338572;28;20213;-70
2023/08/22 10:05:10;;;;;;;15.85;6.60;;;;;41.50;96694.00;;;;8344500;28;20216;-70
2023/08/22 10:09:15;;;;;;;8.35;6.35;;;;;41.20;96699.00;;;;8341259;28;20939;-70
2023/08/22 10:13:22;;;;;;;7.93;6.38;;;;;40.90;96694.00;;;;8343888;28;20753;-70
2023/08/22 10:17:27;;;;;;;9.52;6.53;;;;;40.00;96695.00;;;;8337929;28;20204;-70
2023/08/22 10:21:43;;;;;;;12.68;6.82;;;;;39.10;96694.00;;;;8337924;28;20206;-71
2023/08/22 10:25:51;;;;;;;9.02;6.53;;;;;38.60;96684.00;;;;8330586;28;20193;-72
2023/08/22 10:30:23;;;;;;;9.23;6.45;;;;;39.30;96684.00;;;;8335425;28;20208;-73
2023/08/22 10:34:26;;;;;;;9.00;7.05;;;;;38.90;96690.00;;;;8341110;28;20216;-72
2023/08/22 10:38:31;;;;;;;11.63;7.07;;;;;38.80;96685.00;;;;8345201;28;20199;-72
2023/08/22 10:42:36;;;;;;;9.02;6.40;;;;;38.00;96684.00;;;;8343255;28;20201;-72
2023/08/22 10:47:01;;;;;;;13.32;6.88;;;;;36.70;96688.00;;;;8342173;28;20906;-73
2023/08/22 10:51:07;;;;;;;17.30;6.65;;;;;36.10;96680.00;;;;8342255;28;20311;-71
2023/08/22 10:55:13;;;;;;;10.20;6.65;;;;;35.70;96672.00;;;;8351360;28;20311;-72
2023/08/22 10:59:20;;;;;;;11.27;7.05;;;;;35.50;96669.00;;;;8350658;28;20728;-72
2023/08/22 11:03:31;;;;;;;9.95;7.03;;;;;36.70;96670.00;;;;8342390;28;20227;-72
2023/08/22 11:07:37;;;;;;;9.60;6.53;;;;;37.80;96669.00;;;;8347084;28;20193;-73
2023/08/22 11:11:44;;;;;;;8.73;5.82;;;;;38.70;96667.00;;;;8350190;28;20292;-73
2023/08/22 11:15:51;;;;;;;9.93;5.63;;;;;38.90;96670.00;;;;8341973;28;20576;-73
2023/08/22 11:19:58;;;;;;;8.65;5.90;;;;;38.60;96665.00;;;;8341145;28;20196;-73
2023/08/22 11:24:04;;;;;;;9.98;5.68;;;;;38.50;96672.00;;;;8348530;28;20248;-72
2023/08/22 11:28:07;;;;;;;13.57;5.93;;;;;37.30;96668.00;;;;8349763;28;20670;-73
2023/08/22 11:32:21;;;;;;;10.75;6.60;;;;;36.60;96674.00;;;;8340619;28;20324;-73
2023/08/22 11:36:26;;;;;;;9.13;6.35;;;;;37.20;96671.00;;;;8351431;28;20305;-72
2023/08/22 11:40:30;;;;;;;9.45;6.32;;;;;38.00;96677.00;;;;8349708;28;20200;-72
2023/08/22 11:44:33;;;;;;;9.25;6.13;;;;;38.30;96671.00;;;;8342986;28;20201;-73
2023/08/22 11:48:44;;;;;;;7.43;5.80;;;;;38.80;96662.00;;;;8336506;28;20247;-72
2023/08/22 11:52:54;;;;;;;8.77;6.15;;;;;39.60;96672.00;;;;8338745;28;20225;-74
2023/08/22 11:57:01;;;;;;;7.32;5.75;;;;;39.70;96664.00;;;;8343466;28;20628;-71
2023/08/22 12:01:14;;;;;;;13.50;6.07;;;;;39.30;96669.00;;;;8333639;28;20308;-71
2023/08/22 12:05:40;;;;;;;8.30;6.43;;;;;38.50;96666.00;;;;8334108;28;20280;-71
2023/08/22 12:09:58;;;;;;;8.38;6.30;;;;;37.80;96654.00;;;;8342842;28;21785;-71
2023/08/22 12:14:01;;;;;;;6.32;5.50;;;;;37.30;96673.00;;;;8342303;28;20780;-73
2023/08/22 12:18:08;;;;;;;10.45;6.10;;;;;36.70;96667.00;;;;8350307;28;20609;-73
2023/08/22 12:22:22;;;;;;;6.70;5.85;;;;;36.20;96667.00;;;;8350661;28;20200;-73
2023/08/22 12:26:25;;;;;;;7.45;5.28;;;;;35.90;96668.00;;;;8344277;28;20197;-73
2023/08/22 12:30:33;;;;;;;7.38;5.60;;;;;35.90;96672.00;;;;8339520;28;20215;-72
2023/08/22 12:34:41;;;;;;;6.50;5.72;;;;;35.90;96666.00;;;;8343070;28;20220;-72
2023/08/22 12:38:52;;;;;;;6.47;5.63;;;;;36.00;96669.00;;;;8345128;28;20285;-73
2023/08/22 12:42:55;;;;;;;7.57;6.22;;;;;36.00;96668.00;;;;8346579;28;20205;-73
2023/08/22 12:46:59;;;;;;;11.23;6.25;;;;;36.10;96664.00;;;;8342475;28;20197;-73
2023/08/22 12:51:02;;;;;;;10.80;5.68;;;;;36.20;96670.00;;;;8335245;28;20324;-72
2023/08/22 12:55:08;;;;;;;6.68;5.78;;;;;36.00;96675.00;;;;8347716;28;20228;-73
2023/08/22 12:59:14;;;;;;;9.63;5.20;;;;;35.80;96671.00;;;;8342323;28;20196;-72
2023/08/22 13:03:18;;;;;;;10.30;5.68;;;;;35.80;96671.00;;;;8342903;28;20238;-72
2023/08/22 13:07:23;;;;;;;9.13;5.57;;;;;35.70;96664.00;;;;8333961;28;20441;-72
2023/08/22 13:11:28;;;;;;;6.70;5.43;;;;;35.70;96648.00;;;;8345016;28;20201;-73
2023/08/22 13:15:32;;;;;;;8.63;5.03;;;;;35.80;96656.00;;;;8342971;28;20624;-73
2023/08/22 13:19:38;;;;;;;10.27;5.60;;;;;35.60;96655.00;;;;8331384;28;21003;-73
2023/08/22 13:23:47;;;;;;;7.38;5.07;;;;;35.70;96650.00;;;;8345355;28;20271;-73
2023/08/22 13:27:53;;;;;;;6.82;5.38;;;;;35.80;96652.00;;;;8328687;28;20457;-73
2023/08/22 13:31:56;;;;;;;7.47;4.95;;;;;35.90;96637.00;;;;8325722;28;20232;-72
2023/08/22 13:36:00;;;;;;;5.00;4.50;;;;;36.20;96641.00;;;;8328952;28;20268;-72
2023/08/22 13:40:05;;;;;;;4.82;4.35;;;;;36.50;96635.00;;;;8329138;28;20668;-72
2023/08/22 13:44:17;;;;;;;4.97;4.07;;;;;36.90;96629.00;;;;8329523;28;20201;-73
2023/08/22 13:48:20;;;;;;;10.13;4.68;;;;;37.30;96625.00;;;;8330721;28;20236;-72
2023/08/22 13:52:23;;;;;;;8.25;4.75;;;;;37.40;96634.00;;;;8330235;28;20327;-73
2023/08/22 13:56:30;;;;;;;6.95;4.22;;;;;37.70;96633.00;;;;8331777;28;20267;-72
2023/08/22 14:00:37;;;;;;;7.78;4.90;;;;;37.60;96642.00;;;;8309853;28;20212;-73
2023/08/22 14:04:41;;;;;;;5.65;4.43;;;;;37.20;96634.00;;;;8312111;28;20235;-71
2023/08/22 14:08:47;;;;;;;7.40;5.32;;;;;36.90;96626.00;;;;8323652;28;20194;-68
2023/08/22 14:12:50;;;;;;;5.90;5.22;;;;;37.10;96629.00;;;;8328103;28;20200;-69
2023/08/22 14:16:57;;;;;;;8.65;4.90;;;;;37.10;96634.00;;;;8334952;28;21081;-70
2023/08/22 14:21:01;;;;;;;11.05;5.47;;;;;36.80;96618.00;;;;8326736;28;20200;-70
2023/08/22 14:25:06;;;;;;;7.93;5.43;;;;;37.00;96618.00;;;;8315339;28;20201;-70
2023/08/22 14:29:09;;;;;;;7.07;4.60;;;;;36.50;96625.00;;;;8309274;28;20207;-70
2023/08/22 14:33:14;;;;;;;6.90;4.55;;;;;36.50;96620.00;;;;8343315;28;20820;-71
2023/08/22 14:37:21;;;;;;;5.00;4.28;;;;;37.00;96623.00;;;;8339485;28;20188;-70
2023/08/22 14:41:27;;;;;;;6.80;4.45;;;;;36.90;96620.00;;;;8351078;28;20254;-71
2023/08/22 14:45:30;;;;;;;5.07;4.07;;;;;37.30;96631.00;;;;8344079;28;20216;-71
2023/08/22 14:49:35;;;;;;;5.43;4.28;;;;;37.50;96628.00;;;;8344164;28;20232;-71
2023/08/22 14:53:38;;;;;;;7.25;4.00;;;;;37.80;96621.00;;;;8342104;28;20308;-71
2023/08/22 14:57:41;;;;;;;4.65;3.88;;;;;38.00;96629.00;;;;8329788;28;20276;-71
2023/08/22 15:01:45;;;;;;;7.43;3.90;;;;;38.00;96624.00;;;;8327650;28;20232;-72
2023/08/22 15:05:52;;;;;;;5.28;3.90;;;;;37.80;96608.00;;;;8338646;28;20269;-72
2023/08/22 15:09:59;;;;;;;4.43;3.70;;;;;37.60;96623.00;;;;8349904;28;20219;-72
2023/08/22 15:14:03;;;;;;;6.70;3.78;;;;;37.80;96618.00;;;;8349611;28;20786;-73
2023/08/22 15:18:06;;;;;;;4.75;3.53;;;;;38.00;96611.00;;;;8341768;28;20289;-70
2023/08/22 15:22:11;;;;;;;3.95;3.60;;;;;37.80;96617.00;;;;8343757;28;20205;-70
2023/08/22 15:26:14;;;;;;;6.28;3.67;;;;;37.50;96615.00;;;;8340424;28;20211;-70
2023/08/22 15:30:20;;;;;;;4.80;3.20;;;;;37.50;96613.00;;;;8343981;28;20201;-70
2023/08/22 15:34:24;;;;;;;3.78;3.47;;;;;37.60;96608.00;;;;8340646;28;20233;-74
2023/08/22 15:38:35;;;;;;;6.88;3.53;;;;;37.90;96600.00;;;;8344093;28;20224;-71
2023/08/22 15:42:40;;;;;;;3.60;3.30;;;;;37.90;96607.00;;;;8336355;28;20207;-72
2023/08/22 15:46:51;;;;;;;3.10;2.80;;;;;37.60;96605.00;;;;8348455;28;20305;-64
2023/08/22 15:50:59;;;;;;;9.23;3.47;;;;;37.10;96609.00;;;;8351648;28;20882;-65
2023/08/22 15:55:04;;;;;;;3.28;2.95;;;;;36.90;96602.00;;;;8344791;28;20239;-64
2023/08/22 15:59:08;;;;;;;5.93;3.67;;;;;36.50;96614.00;;;;8343938;28;20288;-64
2023/08/22 16:03:11;;;;;;;4.55;3.40;;;;;35.80;96609.00;;;;8346273;28;20646;-64
2023/08/22 16:07:15;;;;;;;4.53;3.03;;;;;35.30;96617.00;;;;8347884;28;20213;-63
2023/08/22 16:11:20;;;;;;;7.22;3.38;;;;;35.00;96612.00;;;;8345244;28;20207;-65
2023/08/22 16:15:24;;;;;;;3.45;3.05;;;;;34.80;96613.00;;;;8346365;28;20312;-64
2023/08/22 16:19:30;;;;;;;3.65;3.33;;;;;34.90;96605.00;;;;8345210;28;20280;-64
2023/08/22 16:23:36;;;;;;;3.25;3.00;;;;;35.30;96608.00;;;;8341826;28;20209;-65
2023/08/22 16:27:47;;;;;;;6.70;3.22;;;;;35.90;96603.00;;;;8342125;28;20205;-64
2023/08/22 16:31:53;;;;;;;5.28;2.97;;;;;36.20;96604.00;;;;8341371;28;20201;-66
2023/08/22 16:35:56;;;;;;;8.52;3.25;;;;;36.50;96601.00;;;;8348892;28;20232;-65
2023/08/22 16:40:03;;;;;;;11.55;3.00;;;;;36.60;96605.00;;;;8340813;28;20288;-65
2023/08/22 16:44:08;;;;;;;5.75;3.25;;;;;36.60;96606.00;;;;8343882;28;20204;-64
2023/08/22 16:48:17;;;;;;;3.15;2.90;;;;;36.90;96612.00;;;;8346625;28;20232;-65
2023/08/22 16:52:23;;;;;;;4.43;3.13;;;;;37.10;96617.00;;;;8343035;28;20299;-63
2023/08/22 16:56:26;;;;;;;9.80;3.75;;;;;37.10;96620.00;;;;8340002;28;20228;-64
2023/08/22 17:00:31;;;;;;;3.80;3.28;;;;;37.00;96615.00;;;;8344191;28;20275;-63
2023/08/22 17:04:34;;;;;;;5.25;3.20;;;;;36.90;96612.00;;;;8343432;28;20325;-63
2023/08/22 17:08:39;;;;;;;3.58;3.10;;;;;36.80;96617.00;;;;8327460;28;20197;-65
2023/08/22 17:12:43;;;;;;;4.47;3.08;;;;;37.00;96618.00;;;;8337798;28;20246;-64
2023/08/22 17:16:57;;;;;;;4.65;3.10;;;;;36.90;96614.00;;;;8331680;28;20250;-64
2023/08/22 17:21:08;;;;;;;7.38;3.30;;;;;36.30;96613.00;;;;8340292;28;20207;-65
2023/08/22 17:25:11;;;;;;;7.47;3.70;;;;;35.60;96617.00;;;;8339950;28;20207;-69
2023/08/22 17:29:17;;;;;;;6.47;3.33;;;;;35.00;96613.00;;;;8341718;28;20311;-69
2023/08/22 17:33:22;;;;;;;4.78;3.05;;;;;34.40;96616.00;;;;8342805;28;20199;-69
2023/08/22 17:37:25;;;;;;;7.30;3.30;;;;;33.90;96614.00;;;;8337006;28;20229;-72
2023/08/22 17:41:31;;;;;;;8.20;3.67;;;;;33.30;96627.00;;;;8335832;28;20209;-71
2023/08/22 17:45:36;;;;;;;8.07;4.20;;;;;32.90;96622.00;;;;8332218;28;20200;-71
2023/08/22 17:49:42;;;;;;;7.18;3.85;;;;;32.50;96622.00;;;;8341405;28;20258;-71
2023/08/22 17:53:47;;;;;;;8.93;3.47;;;;;32.20;96624.00;;;;8341233;28;20291;-73
2023/08/22 17:57:51;;;;;;;6.75;3.80;;;;;31.80;96625.00;;;;8345470;28;20489;-72
2023/08/22 18:01:59;;;;;;;5.85;3.10;;;;;31.60;96627.00;;;;8343094;28;20976;-72
2023/08/22 18:06:04;;;;;;;8.32;4.22;;;;;31.40;96623.00;;;;8346063;28;20200;-72
2023/08/22 18:10:09;;;;;;;4.03;3.58;;;;;31.20;96627.00;;;;8346165;28;20215;-72
2023/08/22 18:14:16;;;;;;;5.13;3.30;;;;;30.90;96631.00;;;;8345839;28;20288;-71
2023/08/22 18:18:19;;;;;;;5.60;3.33;;;;;30.60;96633.00;;;;8338790;28;20394;-72
2023/08/22 18:22:23;;;;;;;11.32;4.00;;;;;30.30;96634.00;;;;8335914;28;20197;-71
2023/08/22 18:26:31;;;;;;;5.45;3.92;;;;;29.90;96642.00;;;;8349454;28;20721;-71
2023/08/22 18:30:37;;;;;;;3.97;3.58;;;;;29.60;96641.00;;;;8338442;28;20205;-71
2023/08/22 18:34:42;;;;;;;6.45;3.85;;;;;29.40;96644.00;;;;8343971;28;20208;-71
2023/08/22 18:38:50;;;;;;;5.57;3.55;;;;;29.10;96644.00;;;;8341415;28;20211;-72
2023/08/22 18:42:58;;;;;;;5.53;3.78;;;;;28.90;96641.00;;;;8341665;28;20201;-71
2023/08/22 18:47:04;;;;;;;8.73;4.05;;;;;28.70;96647.00;;;;8340501;28;20198;-71
2023/08/22 18:51:08;;;;;;;4.43;4.03;;;;;28.50;96651.00;;;;8344846;28;20283;-71
2023/08/22 18:55:13;;;;;;;3.70;3.40;;;;;28.20;96655.00;;;;8335067;28;20220;-71
2023/08/22 18:59:17;;;;;;;9.10;3.45;;;;;28.00;96653.00;;;;8331584;28;20205;-71
2023/08/22 19:03:21;;;;;;;6.47;3.95;;;;;27.80;96661.00;;;;8328827;28;20292;-74
2023/08/22 19:07:27;;;;;;;6.80;3.85;;;;;27.60;96664.00;;;;8343362;28;20674;-74
2023/08/22 19:11:31;;;;;;;5.40;3.90;;;;;27.40;96662.00;;;;8340658;28;20200;-74
2023/08/22 19:15:45;;;;;;;10.35;4.53;;;;;27.20;96662.00;;;;8345465;28;20673;-77
2023/08/22 19:19:51;;;;;;;21.02;4.57;;;;;27.00;96663.00;;;;8336488;28;20213;-78
2023/08/22 19:23:55;;;;;;;15.25;4.55;;;;;26.80;96666.00;;;;8332892;28;20200;-79
2023/08/22 19:28:00;;;;;;;4.57;3.67;;;;;26.70;96659.00;;;;8339232;28;20199;-80
2023/08/22 19:32:05;;;;;;;9.15;4.00;;;;;26.50;96661.00;;;;8343985;28;20598;-80
2023/08/22 19:36:28;;;;;;;7.20;4.32;;;;;26.40;96655.00;;;;8342801;28;20254;-80
2023/08/22 19:40:31;;;;;;;9.23;4.18;;;;;26.20;96659.00;;;;8350700;28;20228;-77
2023/08/22 19:44:36;;;;;;;7.15;4.10;;;;;26.00;96657.00;;;;8347830;28;20829;-79
2023/08/22 19:48:39;;;;;;;7.47;3.85;;;;;25.80;96659.00;;;;8342564;28;20289;-78
2023/08/22 19:52:42;;;;;;;6.15;4.13;;;;;25.60;96652.00;;;;8338173;28;20207;-75
2023/08/22 19:56:48;;;;;;;6.72;3.97;;;;;25.50;96649.00;;;;8345737;28;20279;-81
2023/08/22 20:00:55;;;;;;;6.32;3.80;;;;;25.50;96651.00;;;;8336885;28;20225;-79
2023/08/22 20:05:00;;;;;;;4.90;4.13;;;;;25.50;96647.00;;;;8345475;28;20702;-78
2023/08/22 20:09:13;;;;;;;5.93;4.10;;;;;25.50;96648.00;;;;8342896;28;20254;-82
2023/08/22 20:13:21;;;;;;;9.38;4.25;;;;;25.40;96653.00;;;;8343217;28;20193;-79
2023/08/22 20:17:30;;;;;;;7.75;4.68;;;;;25.40;96643.00;;;;8340219;28;20224;-73